createdAt,value
2023-03-13T00:01:11.123Z,100.00
2023-03-13T00:03:40.303Z,100.00
2023-03-13T00:06:08.877Z,100.00
2023-03-13T00:08:36.680Z,100.00
2023-03-13T00:11:05.390Z,100.00
2023-03-13T00:13:33.472Z,100.00
2023-03-13T00:16:02.240Z,100.00
2023-03-13T00:18:30.176Z,100.00
2023-03-13T00:21:03.847Z,100.00
2023-03-13T00:23:32.107Z,100.00
2023-03-13T00:26:00.876Z,100.00
2023-03-13T00:28:32.396Z,100.00
2023-03-13T00:31:04.823Z,100.00
2023-03-13T00:33:33.456Z,100.00
2023-03-13T00:36:03.990Z,100.00
2023-03-13T00:38:32.359Z,100.00
2023-03-13T00:41:02.004Z,100.00
2023-03-13T00:43:30.314Z,100.00
2023-03-13T00:45:58.121Z,100.00
2023-03-13T00:48:26.100Z,100.00
2023-03-13T00:50:53.995Z,100.00
2023-03-13T00:53:23.183Z,100.00
2023-03-13T00:55:55.712Z,100.00
2023-03-13T00:58:24.709Z,100.00
2023-03-13T01:00:52.663Z,100.00
2023-03-13T01:03:21.386Z,100.00
2023-03-13T01:05:57.290Z,100.00
2023-03-13T01:08:26.442Z,100.00
2023-03-13T01:10:59.269Z,100.00
2023-03-13T01:13:27.299Z,100.00
2023-03-13T01:15:55.209Z,100.00
2023-03-13T01:18:22.983Z,100.00
2023-03-13T01:20:50.753Z,100.00
2023-03-13T01:23:18.547Z,100.00
2023-03-13T01:25:47.616Z,100.00
2023-03-13T01:28:15.370Z,100.00
2023-03-13T01:30:43.204Z,100.00
2023-03-13T01:33:11.116Z,100.00
2023-03-13T01:35:38.966Z,100.00
2023-03-13T01:38:06.833Z,100.00
2023-03-13T01:40:41.038Z,100.00
2023-03-13T01:43:27.348Z,100.00
2023-03-13T01:46:00.357Z,100.00
2023-03-13T01:48:35.568Z,100.00
2023-03-13T01:51:07.245Z,100.00
2023-03-13T01:53:38.355Z,100.00
2023-03-13T01:56:09.514Z,100.00
2023-03-13T01:58:39.140Z,100.00
2023-03-13T02:01:07.589Z,100.00
2023-03-13T02:03:37.229Z,100.00
2023-03-13T02:06:07.811Z,100.00
2023-03-13T02:08:39.048Z,100.00
2023-03-13T02:11:17.167Z,100.00
2023-03-13T02:13:46.301Z,100.00
2023-03-13T02:16:14.459Z,100.00
2023-03-13T02:18:42.577Z,100.00
2023-03-13T02:21:17.479Z,100.00
2023-03-13T02:23:56.543Z,100.00
2023-03-13T02:26:25.901Z,100.00
2023-03-13T02:28:53.798Z,100.00
2023-03-13T02:31:21.869Z,100.00
2023-03-13T02:33:49.735Z,100.00
2023-03-13T02:36:18.800Z,100.00
2023-03-13T02:38:52.770Z,100.00
2023-03-13T02:41:22.442Z,100.00
2023-03-13T02:43:51.614Z,100.00
2023-03-13T02:46:20.968Z,100.00
2023-03-13T02:48:51.168Z,100.00
2023-03-13T02:51:23.722Z,100.00
2023-03-13T02:53:53.576Z,100.00
2023-03-13T02:56:24.780Z,100.00
2023-03-13T02:58:53.909Z,100.00
2023-03-13T03:01:21.649Z,100.00
2023-03-13T03:03:49.818Z,100.00
2023-03-13T03:06:18.002Z,100.00
2023-03-13T03:08:45.978Z,100.00
2023-03-13T03:11:14.294Z,100.00
2023-03-13T03:13:42.353Z,100.00
2023-03-13T03:16:15.278Z,100.00
2023-03-13T03:18:43.272Z,100.00
2023-03-13T03:21:11.385Z,100.00
2023-03-13T03:23:39.200Z,100.00
2023-03-13T03:26:08.021Z,100.00
2023-03-13T03:28:35.986Z,100.00
2023-03-13T03:31:07.532Z,100.00
2023-03-13T03:33:37.161Z,100.00
2023-03-13T03:36:07.261Z,100.00
2023-03-13T03:38:35.650Z,100.00
2023-03-13T03:41:04.271Z,100.00
2023-03-13T03:43:32.027Z,100.00
2023-03-13T03:45:59.878Z,100.00
2023-03-13T03:48:27.805Z,100.00
2023-03-13T03:50:56.981Z,100.00
2023-03-13T03:53:25.265Z,100.00
2023-03-13T03:55:53.231Z,100.00
2023-03-13T03:58:20.954Z,100.00
2023-03-13T04:00:49.746Z,100.00
2023-03-13T04:03:18.091Z,100.00
2023-03-13T04:05:45.857Z,100.00
2023-03-13T04:08:15.436Z,100.00
2023-03-13T04:10:43.363Z,100.00
2023-03-13T04:13:11.139Z,100.00
2023-03-13T04:15:40.114Z,100.00
2023-03-13T04:18:07.993Z,100.00
2023-03-13T04:20:36.049Z,100.00
2023-03-13T04:23:04.090Z,100.00
2023-03-13T04:25:33.240Z,100.00
2023-03-13T04:28:01.120Z,100.00
2023-03-13T04:30:29.097Z,100.00
2023-03-13T04:32:56.976Z,100.00
2023-03-13T04:35:24.816Z,100.00
2023-03-13T04:37:52.580Z,100.00
2023-03-13T04:40:20.399Z,100.00
2023-03-13T04:42:49.461Z,100.00
2023-03-13T04:45:17.235Z,100.00
2023-03-13T04:47:45.051Z,100.00
2023-03-13T04:50:13.041Z,100.00
2023-03-13T04:52:40.854Z,100.00
2023-03-13T04:55:09.376Z,100.00
2023-03-13T04:57:37.140Z,100.00
2023-03-13T05:00:08.496Z,100.00
2023-03-13T05:02:36.289Z,100.00
2023-03-13T05:05:04.199Z,100.00
2023-03-13T05:07:32.132Z,100.00
2023-03-13T05:09:59.946Z,100.00
2023-03-13T05:12:27.735Z,100.00
2023-03-13T05:14:55.632Z,100.00
2023-03-13T05:17:24.892Z,100.00
2023-03-13T05:19:52.636Z,100.00
2023-03-13T05:22:20.509Z,100.00
2023-03-13T05:24:48.308Z,100.00
2023-03-13T05:27:16.054Z,100.00
2023-03-13T05:29:43.773Z,100.00
2023-03-13T05:32:11.599Z,100.00
2023-03-13T05:34:40.687Z,100.00
2023-03-13T05:37:08.521Z,100.00
2023-03-13T05:39:36.423Z,100.00
2023-03-13T05:42:04.237Z,100.00
2023-03-13T05:44:31.974Z,100.00
2023-03-13T05:46:59.766Z,100.00
2023-03-13T05:49:27.508Z,100.00
2023-03-13T05:51:56.597Z,100.00
2023-03-13T05:54:24.431Z,100.00
2023-03-13T05:56:52.190Z,100.00
2023-03-13T05:59:20.104Z,100.00
2023-03-13T06:01:47.887Z,100.00
2023-03-13T06:04:15.710Z,100.00
2023-03-13T06:06:43.546Z,100.00
2023-03-13T06:09:12.724Z,100.00
2023-03-13T06:11:40.535Z,100.00
2023-03-13T06:14:08.404Z,100.00
2023-03-13T06:16:36.266Z,100.00
2023-03-13T06:19:04.148Z,100.00
2023-03-13T06:21:31.913Z,100.00
2023-03-13T06:23:59.713Z,100.00
2023-03-13T06:26:28.935Z,100.00
2023-03-13T06:28:56.851Z,100.00
2023-03-13T06:31:24.796Z,100.00
2023-03-13T06:33:54.844Z,100.00
2023-03-13T06:36:22.704Z,100.00
2023-03-13T06:38:50.551Z,100.00
2023-03-13T06:41:18.497Z,100.00
2023-03-13T06:43:47.624Z,100.00
2023-03-13T06:46:18.839Z,100.00
2023-03-13T06:48:46.766Z,100.00
2023-03-13T06:51:15.567Z,100.00
2023-03-13T06:53:44.200Z,100.00
2023-03-13T06:56:12.640Z,100.00
2023-03-13T06:58:40.445Z,100.00
2023-03-13T07:01:11.026Z,100.00
2023-03-13T07:03:39.674Z,100.00
2023-03-13T07:06:07.788Z,100.00
2023-03-13T07:08:36.582Z,100.00
2023-03-13T07:11:06.455Z,100.00
2023-03-13T07:13:34.312Z,100.00
2023-03-13T07:16:04.335Z,100.00
2023-03-13T07:18:34.226Z,100.00
2023-03-13T07:21:05.160Z,100.00
2023-03-13T07:23:34.798Z,100.00
2023-03-13T07:26:04.004Z,100.00
2023-03-13T07:28:32.627Z,100.00
2023-03-13T07:31:08.377Z,100.00
2023-03-13T07:33:37.518Z,100.00
2023-03-13T07:36:06.244Z,100.00
2023-03-13T07:38:34.130Z,100.00
2023-03-13T07:41:02.327Z,100.00
2023-03-13T07:43:31.437Z,100.00
2023-03-13T07:46:01.307Z,100.00
2023-03-13T07:48:31.372Z,100.00
2023-03-13T07:51:01.072Z,100.00
2023-03-13T07:53:29.717Z,100.00
2023-03-13T07:55:59.364Z,100.00
2023-03-13T07:58:28.968Z,100.00
2023-03-13T08:00:57.351Z,100.00
2023-03-13T08:03:26.051Z,100.00
2023-03-13T08:06:03.378Z,100.00
2023-03-13T08:08:31.409Z,100.00
2023-03-13T08:11:02.560Z,100.00
2023-03-13T08:13:31.080Z,100.00
2023-03-13T08:16:07.720Z,100.00
2023-03-13T08:18:37.018Z,100.00
2023-03-13T08:21:08.477Z,100.00
2023-03-13T08:23:37.284Z,100.00
2023-03-13T08:26:07.165Z,100.00
2023-03-13T08:28:35.628Z,100.00
2023-03-13T08:31:11.355Z,100.00
2023-03-13T08:33:40.139Z,100.00
2023-03-13T08:36:17.916Z,100.00
2023-03-13T08:38:46.790Z,100.00
2023-03-13T08:41:15.463Z,98.60
2023-03-13T08:43:43.370Z,96.28
2023-03-13T08:46:11.725Z,95.02
2023-03-13T08:48:39.519Z,92.90
2023-03-13T08:51:09.772Z,90.35
2023-03-13T08:53:40.306Z,90.09
2023-03-13T08:56:09.528Z,86.00
2023-03-13T08:58:37.437Z,84.83
2023-03-13T09:01:07.332Z,84.35
2023-03-13T09:03:35.399Z,84.17
2023-03-13T09:06:04.234Z,81.92
2023-03-13T09:08:33.115Z,79.97
2023-03-13T09:11:04.029Z,79.03
2023-03-13T09:13:33.587Z,76.76
2023-03-13T09:16:03.675Z,76.37
2023-03-13T09:18:31.977Z,75.73
2023-03-13T09:20:59.835Z,73.66
2023-03-13T09:23:27.908Z,73.41
2023-03-13T09:25:58.009Z,73.58
2023-03-13T09:28:27.777Z,72.82
2023-03-13T09:30:55.925Z,72.54
2023-03-13T09:33:24.934Z,72.76
2023-03-13T09:35:52.842Z,72.09
2023-03-13T09:38:22.187Z,72.16
2023-03-13T09:41:05.330Z,72.96
2023-03-13T09:43:43.556Z,72.25
2023-03-13T09:46:17.187Z,71.81
2023-03-13T09:48:49.794Z,71.69
2023-03-13T09:51:25.396Z,68.50
2023-03-13T09:53:57.616Z,67.17
2023-03-13T09:56:29.048Z,65.63
2023-03-13T09:59:03.367Z,66.03
2023-03-13T10:01:32.580Z,64.94
2023-03-13T10:04:07.841Z,62.91
2023-03-13T10:06:40.048Z,62.75
2023-03-13T10:09:20.373Z,63.69
2023-03-13T10:11:58.938Z,63.73
2023-03-13T10:14:32.363Z,63.59
2023-03-13T10:17:06.847Z,63.26
2023-03-13T10:19:38.786Z,62.17
2023-03-13T10:22:14.257Z,60.94
2023-03-13T10:24:50.902Z,61.02
2023-03-13T10:27:18.859Z,60.81
2023-03-13T10:29:47.997Z,61.10
2023-03-13T10:32:17.842Z,60.12
2023-03-13T10:34:50.573Z,60.50
2023-03-13T10:37:22.732Z,59.67
2023-03-13T10:39:50.625Z,60.13
2023-03-13T10:42:27.316Z,60.62
2023-03-13T10:45:00.294Z,59.78
2023-03-13T10:47:28.673Z,59.88
2023-03-13T10:49:58.971Z,59.75
2023-03-13T10:52:35.873Z,59.32
2023-03-13T10:55:06.297Z,59.89
2023-03-13T10:57:35.369Z,59.93
2023-03-13T11:00:24.358Z,59.21
2023-03-13T11:02:52.354Z,58.91
2023-03-13T11:05:32.488Z,59.53
2023-03-13T11:08:13.130Z,59.78
2023-03-13T11:10:54.746Z,58.46
2023-03-13T11:13:36.910Z,58.85
2023-03-13T11:16:23.098Z,59.69
2023-03-13T11:19:09.234Z,58.79
2023-03-13T11:21:45.567Z,58.31
2023-03-13T11:24:20.541Z,57.73
2023-03-13T11:27:04.676Z,55.67
2023-03-13T11:29:44.677Z,54.52
2023-03-13T11:32:24.970Z,54.30
2023-03-13T11:34:58.425Z,54.62
2023-03-13T11:37:29.718Z,54.59
2023-03-13T11:40:10.849Z,55.73
2023-03-13T11:42:55.771Z,57.12
2023-03-13T11:45:44.788Z,57.15
2023-03-13T11:48:24.742Z,57.69
2023-03-13T11:50:59.816Z,57.37
2023-03-13T11:53:41.621Z,56.79
2023-03-13T11:56:16.951Z,56.40
2023-03-13T11:59:03.751Z,56.63
2023-03-13T12:01:35.600Z,56.19
2023-03-13T12:04:12.841Z,56.45
2023-03-13T12:06:45.337Z,58.14
2023-03-13T12:09:17.498Z,57.18
2023-03-13T12:11:55.081Z,57.12
2023-03-13T12:14:30.101Z,56.82
2023-03-13T12:17:02.023Z,56.46
2023-03-13T12:19:35.200Z,55.38
2023-03-13T12:22:14.741Z,54.49
2023-03-13T12:24:48.260Z,53.01
2023-03-13T12:27:23.381Z,53.23
2023-03-13T12:29:59.722Z,52.28
2023-03-13T12:32:36.318Z,51.51
2023-03-13T12:35:09.683Z,52.93
2023-03-13T12:37:43.655Z,51.94
2023-03-13T12:40:17.174Z,51.77
2023-03-13T12:42:53.411Z,52.03
2023-03-13T12:45:25.727Z,49.36
2023-03-13T12:48:23.481Z,49.37
2023-03-13T12:51:18.259Z,50.37
2023-03-13T12:54:19.672Z,50.25
2023-03-13T12:57:11.796Z,50.65
2023-03-13T12:59:42.265Z,50.79
2023-03-13T13:02:17.715Z,49.50
2023-03-13T13:04:47.781Z,50.94
2023-03-13T13:07:29.395Z,50.96
2023-03-13T13:10:04.849Z,48.96
2023-03-13T13:12:33.339Z,49.55
2023-03-13T13:15:12.585Z,49.59
2023-03-13T13:18:06.862Z,49.02
2023-03-13T13:20:58.520Z,48.97
2023-03-13T13:23:36.839Z,49.33
2023-03-13T13:26:47.560Z,48.38
2023-03-13T13:29:54.222Z,47.49
2023-03-13T13:32:32.583Z,49.55
2023-03-13T13:35:06.382Z,51.71
2023-03-13T13:37:34.944Z,51.33
2023-03-13T13:40:27.641Z,50.28
2023-03-13T13:42:59.052Z,50.20
2023-03-13T13:45:33.414Z,50.71
2023-03-13T13:48:28.259Z,50.60
2023-03-13T13:51:28.692Z,50.54
2023-03-13T13:53:59.869Z,50.83
2023-03-13T13:56:41.115Z,50.46
2023-03-13T13:59:37.564Z,50.76
2023-03-13T14:02:22.959Z,50.20
2023-03-13T14:05:04.282Z,51.16
2023-03-13T14:07:44.464Z,50.54
2023-03-13T14:10:30.746Z,51.13
2023-03-13T14:13:02.944Z,50.99
2023-03-13T14:15:32.366Z,51.46
2023-03-13T14:18:09.846Z,51.63
2023-03-13T14:20:38.955Z,52.06
2023-03-13T14:23:08.480Z,51.82
2023-03-13T14:25:45.727Z,52.22
2023-03-13T14:28:19.930Z,51.22
2023-03-13T14:30:49.149Z,51.36
2023-03-13T14:33:17.531Z,50.80
2023-03-13T14:35:45.635Z,50.27
2023-03-13T14:38:18.828Z,49.53
2023-03-13T14:40:46.652Z,50.40
2023-03-13T14:43:32.358Z,50.21
2023-03-13T14:46:01.336Z,49.79
2023-03-13T14:48:33.069Z,48.88
2023-03-13T14:51:15.475Z,49.19
2023-03-13T14:53:55.590Z,49.07
2023-03-13T14:56:33.037Z,49.57
2023-03-13T14:59:15.910Z,48.81
2023-03-13T15:01:44.168Z,49.72
2023-03-13T15:04:11.986Z,49.19
2023-03-13T15:06:39.995Z,48.44
2023-03-13T15:09:20.096Z,48.55
2023-03-13T15:11:59.724Z,48.48
2023-03-13T15:14:40.261Z,48.39
2023-03-13T15:17:27.555Z,48.39
2023-03-13T15:19:57.852Z,48.41
2023-03-13T15:22:30.270Z,47.80
2023-03-13T15:25:08.068Z,47.79
2023-03-13T15:27:36.200Z,48.46
2023-03-13T15:30:06.897Z,48.13
2023-03-13T15:32:36.948Z,49.35
2023-03-13T15:35:22.463Z,49.92
2023-03-13T15:37:50.509Z,49.86
2023-03-13T15:40:19.656Z,49.55
2023-03-13T15:42:47.493Z,49.44
2023-03-13T15:45:16.827Z,49.61
2023-03-13T15:47:45.114Z,49.84
2023-03-13T15:50:13.990Z,49.62
2023-03-13T15:52:42.219Z,50.29
2023-03-13T15:55:12.035Z,50.19
2023-03-13T15:57:45.435Z,49.95
2023-03-13T16:00:19.776Z,50.20
2023-03-13T16:02:47.780Z,50.32
2023-03-13T16:05:15.969Z,50.82
2023-03-13T16:07:43.707Z,51.23
2023-03-13T16:10:17.145Z,51.13
2023-03-13T16:12:44.964Z,51.83
2023-03-13T16:15:12.879Z,51.57
2023-03-13T16:17:42.116Z,52.03
2023-03-13T16:20:16.030Z,52.48
2023-03-13T16:22:43.892Z,53.19
2023-03-13T16:25:14.217Z,53.80
2023-03-13T16:27:42.517Z,53.60
2023-03-13T16:30:17.905Z,54.09
2023-03-13T16:32:47.229Z,54.67
2023-03-13T16:35:15.054Z,54.83
2023-03-13T16:37:42.886Z,55.07
2023-03-13T16:40:17.712Z,55.47
2023-03-13T16:42:45.697Z,55.16
2023-03-13T16:45:14.492Z,56.16
2023-03-13T16:47:42.782Z,57.09
2023-03-13T16:50:23.558Z,57.34
2023-03-13T16:52:52.915Z,58.06
2023-03-13T16:55:21.319Z,58.73
2023-03-13T16:57:49.077Z,59.83
2023-03-13T17:00:19.291Z,60.38
2023-03-13T17:02:47.315Z,60.92
2023-03-13T17:05:16.189Z,61.94
2023-03-13T17:07:47.241Z,62.97
2023-03-13T17:10:18.971Z,63.38
2023-03-13T17:12:46.861Z,63.99
2023-03-13T17:15:14.624Z,64.79
2023-03-13T17:17:44.988Z,65.58
2023-03-13T17:20:16.175Z,66.71
2023-03-13T17:22:45.604Z,67.30
2023-03-13T17:25:13.423Z,68.53
2023-03-13T17:27:42.116Z,69.40
2023-03-13T17:30:20.182Z,69.31
2023-03-13T17:32:49.982Z,69.59
2023-03-13T17:35:19.275Z,70.19
2023-03-13T17:37:48.531Z,71.22
2023-03-13T17:40:18.670Z,71.76
2023-03-13T17:42:46.431Z,73.22
2023-03-13T17:45:14.877Z,73.99
2023-03-13T17:47:42.959Z,74.29
2023-03-13T17:50:19.262Z,74.42
2023-03-13T17:52:48.628Z,74.85
2023-03-13T17:55:17.177Z,75.09
2023-03-13T17:57:45.094Z,75.85
2023-03-13T18:00:21.219Z,76.73
2023-03-13T18:02:49.214Z,76.92
2023-03-13T18:05:17.077Z,77.27
2023-03-13T18:07:45.530Z,77.12
2023-03-13T18:10:20.469Z,77.41
2023-03-13T18:12:48.578Z,77.72
2023-03-13T18:15:16.492Z,78.32
2023-03-13T18:17:44.329Z,79.09
2023-03-13T18:20:16.302Z,80.32
2023-03-13T18:22:44.132Z,80.72
2023-03-13T18:25:12.523Z,81.88
2023-03-13T18:27:41.718Z,82.83
2023-03-13T18:30:16.884Z,83.89
2023-03-13T18:32:45.393Z,83.78
2023-03-13T18:35:14.595Z,83.58
2023-03-13T18:37:44.889Z,83.75
2023-03-13T18:40:18.458Z,84.54
2023-03-13T18:42:47.737Z,85.65
2023-03-13T18:45:16.423Z,85.97
2023-03-13T18:47:44.587Z,85.88
2023-03-13T18:50:20.373Z,85.93
2023-03-13T18:52:48.161Z,85.83
2023-03-13T18:55:16.128Z,85.01
2023-03-13T18:57:43.915Z,83.68
2023-03-13T19:00:18.476Z,82.35
2023-03-13T19:02:46.498Z,82.51
2023-03-13T19:05:14.551Z,83.16
2023-03-13T19:07:42.340Z,83.78
2023-03-13T19:10:19.824Z,85.00
2023-03-13T19:12:48.057Z,85.19
2023-03-13T19:15:18.328Z,85.12
2023-03-13T19:17:46.213Z,85.57
2023-03-13T19:20:16.670Z,86.18
2023-03-13T19:22:44.393Z,86.54
2023-03-13T19:25:14.086Z,86.83
2023-03-13T19:27:42.327Z,87.43
2023-03-13T19:30:18.766Z,87.87
2023-03-13T19:32:46.703Z,88.33
2023-03-13T19:35:18.642Z,89.33
2023-03-13T19:37:46.795Z,89.95
2023-03-13T19:40:18.935Z,89.48
2023-03-13T19:42:46.870Z,89.41
2023-03-13T19:45:17.233Z,89.66
2023-03-13T19:47:46.555Z,89.52
2023-03-13T19:50:18.631Z,90.09
2023-03-13T19:52:46.512Z,90.52
2023-03-13T19:55:14.990Z,90.98
2023-03-13T19:57:43.052Z,92.49
2023-03-13T20:00:19.095Z,92.83
2023-03-13T20:02:48.361Z,92.91
2023-03-13T20:05:16.229Z,93.42
2023-03-13T20:07:44.131Z,94.61
2023-03-13T20:10:12.424Z,95.61
2023-03-13T20:12:40.293Z,96.02
2023-03-13T20:15:09.658Z,96.41
2023-03-13T20:17:37.453Z,96.42
2023-03-13T20:20:08.507Z,96.68
2023-03-13T20:22:36.304Z,96.74
2023-03-13T20:25:04.419Z,97.31
2023-03-13T20:27:32.217Z,96.60
2023-03-13T20:30:00.770Z,96.38
2023-03-13T20:32:28.963Z,96.10
2023-03-13T20:34:56.764Z,96.01
2023-03-13T20:37:25.958Z,96.13
2023-03-13T20:39:54.871Z,96.15
2023-03-13T20:42:22.746Z,96.88
2023-03-13T20:44:50.575Z,97.76
2023-03-13T20:47:18.414Z,97.91
2023-03-13T20:49:46.177Z,98.05
2023-03-13T20:52:13.913Z,99.08
2023-03-13T20:54:43.073Z,99.90
2023-03-13T20:57:10.988Z,100.00
2023-03-13T20:59:39.043Z,100.00
2023-03-13T21:02:07.389Z,100.00
2023-03-13T21:04:35.197Z,100.00
2023-03-13T21:07:04.662Z,100.00
2023-03-13T21:09:34.099Z,100.00
2023-03-13T21:12:03.183Z,100.00
2023-03-13T21:14:33.373Z,100.00
2023-03-13T21:17:02.486Z,100.00
2023-03-13T21:19:30.302Z,100.00
2023-03-13T21:21:58.616Z,100.00
2023-03-13T21:24:26.417Z,100.00
2023-03-13T21:26:55.184Z,100.00
2023-03-13T21:29:24.412Z,100.00
2023-03-13T21:31:52.246Z,100.00
2023-03-13T21:34:20.000Z,100.00
2023-03-13T21:36:47.737Z,100.00
2023-03-13T21:39:15.574Z,100.00
2023-03-13T21:41:43.391Z,100.00
2023-03-13T21:44:11.290Z,100.00
2023-03-13T21:46:40.471Z,100.00
2023-03-13T21:49:08.331Z,100.00
2023-03-13T21:51:36.114Z,100.00
2023-03-13T21:54:03.960Z,100.00
2023-03-13T21:56:31.683Z,100.00
2023-03-13T21:58:59.417Z,100.00
2023-03-13T22:01:27.317Z,100.00
2023-03-13T22:03:56.443Z,100.00
2023-03-13T22:06:24.183Z,100.00
2023-03-13T22:08:52.466Z,100.00
2023-03-13T22:11:20.213Z,100.00
2023-03-13T22:13:47.961Z,100.00
2023-03-13T22:16:15.759Z,100.00
2023-03-13T22:18:43.933Z,100.00
2023-03-13T22:21:13.037Z,100.00
2023-03-13T22:23:40.895Z,100.00
2023-03-13T22:26:08.637Z,100.00
2023-03-13T22:28:36.793Z,100.00
2023-03-13T22:31:06.226Z,100.00
2023-03-13T22:33:34.900Z,100.00
2023-03-13T22:36:03.410Z,100.00
2023-03-13T22:38:36.201Z,100.00
2023-03-13T22:41:05.292Z,100.00
2023-03-13T22:43:33.288Z,100.00
2023-03-13T22:46:01.219Z,100.00
2023-03-13T22:48:29.030Z,100.00
2023-03-13T22:51:02.161Z,100.00
2023-03-13T22:53:30.015Z,100.00
2023-03-13T22:55:59.420Z,100.00
2023-03-13T22:58:27.533Z,100.00
2023-03-13T23:00:55.725Z,100.00
2023-03-13T23:03:24.018Z,100.00
2023-03-13T23:05:51.874Z,100.00
2023-03-13T23:08:20.046Z,100.00
2023-03-13T23:10:48.890Z,100.00
2023-03-13T23:13:18.068Z,100.00
2023-03-13T23:15:59.940Z,100.00
2023-03-13T23:18:28.929Z,100.00
2023-03-13T23:20:56.673Z,100.00
2023-03-13T23:23:24.463Z,100.00
2023-03-13T23:25:52.283Z,100.00
2023-03-13T23:28:21.378Z,100.00
2023-03-13T23:30:49.108Z,100.00
2023-03-13T23:33:16.898Z,100.00
2023-03-13T23:35:45.162Z,100.00
2023-03-13T23:38:13.796Z,100.00
2023-03-13T23:40:41.621Z,100.00
2023-03-13T23:43:09.349Z,100.00
2023-03-13T23:45:38.437Z,100.00
2023-03-13T23:48:06.563Z,100.00
2023-03-13T23:50:34.417Z,100.00
2023-03-13T23:53:02.141Z,100.00
2023-03-13T23:55:30.206Z,100.00
2023-03-13T23:57:57.989Z,100.00
